Time;durP1;ratioP1;P1;durP2;ratioP2;P2;SDS_P1;SDS_P2;PMS_P1;PMS_P2;Temp;Humidity;BMP_temperature;BMP_pressure;BME280_temperature;BME280_humidity;BME280_pressure;Samples;Min_cycle;Max_cycle;Signal;HPM_P1;HPM_P2
2023/01/11 00:04:56;;;;;;;10.63;3.53;;;4.80;1.00;;;;;;6242796;22;20222;-83
2023/01/11 00:10:39;;;;;;;10.15;3.50;;;4.90;1.00;;;;;;6303518;22;20192;-81
2023/01/11 00:13:10;;;;;;;9.05;3.22;;;4.90;1.00;;;;;;6302682;22;20234;-81
2023/01/11 00:15:39;;;;;;;11.70;3.55;;;4.90;1.00;;;;;;6319647;22;20998;-81
2023/01/11 00:18:07;;;;;;;9.73;3.38;;;4.90;1.00;;;;;;6319267;22;20211;-81
2023/01/11 00:20:59;;;;;;;;;;;;;;;;;;;;;
2023/01/11 00:23:28;;;;;;;10.65;3.92;;;4.90;1.00;;;;;;6233893;22;39675;-81
2023/01/11 00:28:40;;;;;;;11.77;3.92;;;5.00;1.00;;;;;;6304434;22;20959;-81
2023/01/11 00:31:12;;;;;;;11.45;3.65;;;5.00;1.00;;;;;;6321562;22;20214;-81
2023/01/11 00:34:24;;;;;;;11.13;3.55;;;5.00;1.00;;;;;;6243361;22;20211;-82
2023/01/11 00:37:19;;;;;;;11.02;3.40;;;5.00;1.00;;;;;;6241498;22;20223;-83
2023/01/11 00:39:59;;;;;;;;;;;;;;;;;;;;;
2023/01/11 00:48:39;;;;;;;;;;;;;;;;;;;;;
2023/01/11 00:51:10;;;;;;;10.48;3.78;;;5.00;1.00;;;;;;6271757;22;50828;-83
2023/01/11 00:53:50;;;;;;;;;;;;;;;;;;;;;
2023/01/11 00:56:19;;;;;;;8.50;3.22;;;4.90;1.00;;;;;;6238185;22;39518;-81
2023/01/11 00:58:48;;;;;;;12.93;3.33;;;4.90;1.00;;;;;;6275220;22;20727;-82
2023/01/11 01:01:18;;;;;;;13.10;4.07;;;4.90;1.00;;;;;;6291276;22;20242;-80
2023/01/11 01:03:51;;;;;;;10.70;3.47;;;4.90;1.00;;;;;;6290006;22;20218;-82
2023/01/11 01:09:30;;;;;;;10.27;3.00;;;4.90;1.00;;;;;;6175559;23;20246;-80
2023/01/11 01:11:58;;;;;;;14.57;3.75;;;4.90;1.00;;;;;;6222385;23;20272;-80
2023/01/11 01:14:44;;;;;;;;;;;;;;;;;;;;;
2023/01/11 01:17:59;;;;;;;9.82;3.05;;;4.90;1.00;;;;;;6228999;22;20217;-83
2023/01/11 01:20:30;;;;;;;11.43;3.45;;;4.90;1.00;;;;;;6150688;22;20997;-82
2023/01/11 01:23:06;;;;;;;11.73;3.33;;;4.90;1.00;;;;;;6307613;22;20204;-82
2023/01/11 01:26:00;;;;;;;;;;;;;;;;;;;;;
2023/01/11 01:28:37;;;;;;;12.77;3.60;;;4.80;1.00;;;;;;6244842;22;20748;-82
2023/01/11 01:31:10;;;;;;;11.80;4.00;;;4.80;1.00;;;;;;6269203;22;20213;-82
2023/01/11 01:34:05;;;;;;;12.65;3.17;;;4.90;1.00;;;;;;6263596;22;20211;-81
2023/01/11 01:36:48;;;;;;;7.68;2.60;;;4.90;1.00;;;;;;6249064;22;20214;-83
2023/01/11 01:39:19;;;;;;;7.88;3.22;;;4.90;1.00;;;;;;6182919;22;20193;-86
2023/01/11 01:45:27;;;;;;;9.98;3.90;;;5.00;1.00;;;;;;6164529;22;20220;-87
2023/01/11 01:57:38;;;;;;;13.70;3.65;;;5.00;1.00;;;;;;6112035;23;20216;-85
2023/01/11 02:00:27;;;;;;;10.02;2.70;;;5.10;1.00;;;;;;6104600;23;20215;-89
2023/01/11 02:06:30;;;;;;;;;;;;;;;;;;;;;
2023/01/11 02:09:17;;;;;;;11.15;2.38;;;5.20;1.00;;;;;;6143459;23;50731;-84
2023/01/11 02:15:10;;;;;;;;;;;;;;;;;;;;;
2023/01/11 02:17:38;;;;;;;8.20;2.33;;;5.30;1.00;;;;;;6331182;22;38757;-88
2023/01/11 02:20:39;;;;;;;9.05;2.20;;;5.30;1.00;;;;;;6356055;22;20225;-88
2023/01/11 02:23:58;;;;;;;7.93;2.47;;;5.40;1.00;;;;;;6354656;22;20200;-88
2023/01/11 02:27:29;;;;;;;10.70;2.90;;;5.40;1.00;;;;;;6283350;22;20710;-88
2023/01/11 02:30:28;;;;;;;9.13;2.55;;;5.40;1.00;;;;;;6327981;22;20214;-87
2023/01/11 02:33:27;;;;;;;9.38;3.00;;;5.50;1.00;;;;;;6096879;23;20207;-87
2023/01/11 02:36:18;;;;;;;9.27;2.40;;;5.50;1.00;;;;;;6122870;23;20207;-87
2023/01/11 02:39:03;;;;;;;8.02;2.45;;;5.60;1.00;;;;;;6082186;22;20209;-86
2023/01/11 02:45:08;;;;;;;8.85;2.22;;;5.70;1.00;;;;;;6284025;22;20210;-87
2023/01/11 02:47:49;;;;;;;8.23;2.70;;;5.70;1.00;;;;;;6303460;22;20229;-88
2023/01/11 02:50:32;;;;;;;;;;;;;;;;;;;;;
2023/01/11 02:53:27;;;;;;;9.57;2.15;;;5.70;1.00;;;;;;6354287;22;50984;-88
2023/01/11 02:56:38;;;;;;;6.95;2.10;;;5.70;1.00;;;;;;6260886;22;20210;-88
2023/01/11 02:59:09;;;;;;;7.38;1.90;;;5.70;1.00;;;;;;6251488;22;20295;-87
2023/01/11 03:02:01;;;;;;;;;;;;;;;;;;;;;
2023/01/11 03:04:38;;;;;;;7.45;2.47;;;5.70;1.00;;;;;;6299478;22;39802;-88
2023/01/11 03:07:38;;;;;;;9.43;2.78;;;5.70;1.00;;;;;;6327559;22;20261;-85
2023/01/11 03:10:28;;;;;;;7.53;2.58;;;5.70;1.00;;;;;;6322359;22;20317;-87
2023/01/11 03:13:35;;;;;;;7.22;2.10;;;5.70;1.00;;;;;;6371564;22;20212;-88
2023/01/11 03:16:35;;;;;;;;;;;;;;;;;;;;;
2023/01/11 03:19:48;;;;;;;8.20;2.42;;;5.70;1.00;;;;;;6378969;22;52040;-88
2023/01/11 03:22:35;;;;;;;9.13;2.40;;;5.70;1.00;;;;;;6361620;22;20206;-87
2023/01/11 03:25:32;;;;;;;;;;;;;;;;;;;;;
2023/01/11 03:28:07;;;;;;;7.25;2.00;;;5.80;1.00;;;;;;6315878;22;50762;-88
2023/01/11 03:31:07;;;;;;;7.85;2.10;;;5.80;1.00;;;;;;6316256;22;20276;-87
2023/01/11 03:33:56;;;;;;;7.47;2.03;;;5.80;1.00;;;;;;6377324;22;20213;-88
2023/01/11 03:36:43;;;;;;;8.23;1.85;;;5.90;1.00;;;;;;6349073;22;20256;-88
2023/01/11 03:39:41;;;;;;;8.85;2.40;;;5.90;1.00;;;;;;6356393;22;20764;-88
2023/01/11 03:42:28;;;;;;;8.38;2.33;;;5.90;1.00;;;;;;6314525;22;20212;-88
2023/01/11 03:47:52;;;;;;;9.00;2.10;;;5.90;1.00;;;;;;6358966;22;20217;-87
2023/01/11 03:50:29;;;;;;;6.72;1.98;;;6.00;1.00;;;;;;6326387;22;20201;-87
2023/01/11 03:53:07;;;;;;;10.35;2.38;;;6.00;1.00;;;;;;6334540;22;20201;-87
2023/01/11 03:55:57;;;;;;;9.95;2.30;;;6.00;1.00;;;;;;6360773;22;20259;-89
2023/01/11 03:58:29;;;;;;;7.10;2.10;;;6.00;1.00;;;;;;6220703;22;20217;-88
2023/01/11 04:01:08;;;;;;;8.40;2.10;;;6.00;1.00;;;;;;6222157;22;20202;-88
2023/01/11 04:03:50;;;;;;;9.82;2.10;;;6.00;1.00;;;;;;6202035;22;20241;-87
2023/01/11 04:06:20;;;;;;;6.53;1.58;;;6.00;1.00;;;;;;6184654;22;20313;-88
2023/01/11 04:08:49;;;;;;;10.70;2.10;;;6.10;1.00;;;;;;6175500;23;20277;-88
2023/01/11 04:11:50;;;;;;;;;;;;;;;;;;;;;
2023/01/11 04:14:20;;;;;;;9.75;2.72;;;6.10;1.00;;;;;;6229536;22;48567;-88
2023/01/11 04:16:49;;;;;;;10.02;2.15;;;6.10;1.00;;;;;;6193399;22;20216;-89
2023/01/11 04:19:28;;;;;;;11.30;2.10;;;6.20;1.00;;;;;;6186401;22;20229;-88
2023/01/11 04:21:57;;;;;;;8.13;2.42;;;6.20;1.00;;;;;;6189970;22;20212;-87
2023/01/11 04:24:32;;;;;;;8.32;2.10;;;6.20;1.00;;;;;;6204087;22;20220;-88
2023/01/11 04:27:02;;;;;;;7.30;2.00;;;6.20;1.00;;;;;;6275926;22;20201;-87
2023/01/11 04:29:29;;;;;;;7.47;1.80;;;6.20;1.00;;;;;;6354142;22;20203;-87
2023/01/11 04:32:30;;;;;;;9.30;2.20;;;6.20;1.00;;;;;;6323258;22;20206;-87
2023/01/11 04:35:09;;;;;;;8.30;2.53;;;6.20;1.00;;;;;;6321107;22;20666;-87
2023/01/11 04:37:42;;;;;;;7.53;2.13;;;6.20;1.00;;;;;;6314956;22;20200;-87
2023/01/11 04:40:19;;;;;;;6.95;2.00;;;6.20;1.00;;;;;;6350945;22;20198;-87
2023/01/11 04:42:49;;;;;;;7.43;1.90;;;6.30;1.00;;;;;;6333177;22;20316;-88
2023/01/11 04:45:39;;;;;;;8.90;1.98;;;6.30;1.00;;;;;;6323441;22;20294;-88
2023/01/11 04:48:38;;;;;;;8.43;2.50;;;6.40;1.00;;;;;;6339464;22;21058;-89
2023/01/11 04:51:16;;;;;;;8.65;2.10;;;6.30;1.00;;;;;;6189683;23;20209;-88
2023/01/11 04:54:06;;;;;;;8.50;2.55;;;6.30;1.00;;;;;;6174806;23;20212;-88
2023/01/11 04:57:01;;;;;;;8.05;2.33;;;6.30;1.00;;;;;;6159105;22;20203;-88
2023/01/11 04:59:38;;;;;;;10.73;2.10;;;6.30;1.00;;;;;;6293079;22;20198;-88
2023/01/11 05:38:20;;;;;;;;;;;;;;;;;;;;;
2023/01/11 05:41:12;;;;;;;7.55;2.13;;;6.60;1.00;;;;;;6169913;23;49549;-88
2023/01/11 05:46:58;;;;;;;10.70;3.00;;;6.50;1.00;;;;;;6196480;23;20277;-86
2023/01/11 06:15:20;;;;;;;;;;;;;;;;;;;;;
2023/01/11 06:18:39;;;;;;;;;;;;;;;;;;;;;
2023/01/11 06:49:38;;;;;;;7.20;2.42;;;6.60;1.00;;;;;;5955330;23;20211;-86
2023/01/11 06:52:48;;;;;;;;;;;;;;;;;;;;;
2023/01/11 06:55:28;;;;;;;11.40;2.28;;;6.60;1.00;;;;;;6048167;23;49069;-86
2023/01/11 07:01:39;;;;;;;7.65;2.88;;;6.60;1.00;;;;;;6031295;23;20238;-85
2023/01/11 07:07:10;;;;;;;7.85;2.40;;;6.60;1.00;;;;;;6187715;23;20209;-85
2023/01/11 07:09:50;;;;;;;6.78;1.60;;;6.50;1.00;;;;;;6151396;22;20209;-84
2023/01/11 07:15:29;;;;;;;7.18;2.03;;;6.60;1.00;;;;;;6174653;23;20195;-83
2023/01/11 07:18:21;;;;;;;;;;;;;;;;;;;;;
2023/01/11 07:21:02;;;;;;;6.10;2.03;;;6.60;1.00;;;;;;6164690;23;50405;-83
2023/01/11 07:23:30;;;;;;;9.50;1.95;;;6.60;1.00;;;;;;6180265;22;20210;-82
2023/01/11 07:26:03;;;;;;;7.00;1.77;;;6.60;1.00;;;;;;6198101;23;20216;-82
2023/01/11 07:28:30;;;;;;;8.02;2.03;;;6.70;1.00;;;;;;6182864;22;20292;-83
2023/01/11 07:31:00;;;;;;;12.40;2.45;;;6.70;1.00;;;;;;6164662;23;20218;-81
2023/01/11 07:33:30;;;;;;;9.57;1.92;;;6.70;1.00;;;;;;6182975;22;20279;-84
2023/01/11 07:36:19;;;;;;;9.77;2.35;;;6.70;1.00;;;;;;6169593;23;20208;-85
2023/01/11 07:39:01;;;;;;;6.75;1.70;;;6.70;1.00;;;;;;6230439;23;20335;-85
2023/01/11 07:44:32;;;;;;;9.52;1.92;;;6.70;1.00;;;;;;6218280;22;20209;-85
2023/01/11 07:46:59;;;;;;;9.63;2.50;;;6.70;1.00;;;;;;6230034;22;20248;-81
2023/01/11 07:49:39;;;;;;;6.88;2.03;;;6.60;1.00;;;;;;6261934;22;20218;-83
2023/01/11 07:52:13;;;;;;;8.65;2.30;;;6.70;1.00;;;;;;6265567;22;20209;-83
2023/01/11 07:54:47;;;;;;;6.70;2.03;;;6.60;1.00;;;;;;6230153;22;20271;-83
2023/01/11 07:57:19;;;;;;;8.55;2.10;;;6.70;1.00;;;;;;6261523;22;20221;-83
2023/01/11 08:00:02;;;;;;;;;;;;;;;;;;;;;
2023/01/11 08:02:41;;;;;;;7.55;2.75;;;6.70;1.00;;;;;;6196799;22;40289;-84
2023/01/11 08:08:10;;;;;;;5.53;1.88;;;6.80;1.00;;;;;;6224460;22;20205;-84
2023/01/11 08:17:00;;;;;;;8.20;2.08;;;7.00;1.00;;;;;;6257544;22;20261;-84
2023/01/11 08:19:30;;;;;;;9.02;2.15;;;7.00;1.00;;;;;;6255530;22;20217;-83
2023/01/11 08:22:11;;;;;;;;;;;;;;;;;;;;;
2023/01/11 08:24:43;;;;;;;6.00;1.80;;;7.00;1.00;;;;;;6223777;22;40108;-84
2023/01/11 08:27:50;;;;;;;7.13;2.15;;;7.00;1.00;;;;;;6234981;22;20299;-84
2023/01/11 08:33:39;;;;;;;9.27;1.85;;;7.10;1.00;;;;;;6254525;22;20216;-84
2023/01/11 08:36:39;;;;;;;8.38;2.20;;;7.10;1.00;;;;;;6258720;22;20257;-85
2023/01/11 08:39:42;;;;;;;;;;;;;;;;;;;;;
2023/01/11 08:42:09;;;;;;;7.30;2.65;;;7.20;1.00;;;;;;6253312;22;50649;-86
2023/01/11 08:45:00;;;;;;;9.15;1.85;;;7.20;1.00;;;;;;6263280;22;20185;-83
2023/01/11 08:51:42;;;;;;;;;;;;;;;;;;;;;
2023/01/11 08:57:59;;;;;;;6.60;2.17;;;7.30;1.00;;;;;;6150734;23;20577;-84
2023/01/11 09:00:30;;;;;;;7.55;2.72;;;7.40;1.00;;;;;;6154510;23;20677;-83
2023/01/11 09:03:19;;;;;;;9.40;2.65;;;7.40;1.00;;;;;;6218423;22;20215;-83
2023/01/11 09:05:58;;;;;;;7.57;2.45;;;7.40;1.00;;;;;;6253788;22;20214;-83
2023/01/11 09:08:32;;;;;;;7.70;2.55;;;7.50;1.00;;;;;;6254461;22;20202;-82
2023/01/11 09:11:59;;;;;;;9.10;2.60;;;7.50;1.00;;;;;;6232661;22;20477;-84
2023/01/11 09:14:38;;;;;;;6.72;2.00;;;7.60;1.00;;;;;;6249407;22;20294;-83
2023/01/11 09:17:23;;;;;;;7.75;3.15;;;7.70;1.00;;;;;;6271447;22;20250;-82
2023/01/11 09:19:50;;;;;;;8.25;2.00;;;7.70;1.00;;;;;;6255947;22;20211;-83
2023/01/11 09:22:21;;;;;;;6.78;2.10;;;7.80;1.00;;;;;;6256073;22;20256;-82
2023/01/11 09:24:48;;;;;;;6.35;1.92;;;7.80;1.00;;;;;;6246914;22;21042;-81
2023/01/11 09:27:15;;;;;;;8.32;1.90;;;7.90;1.00;;;;;;6257134;22;20684;-82
2023/01/11 09:29:44;;;;;;;6.55;2.33;;;7.90;1.00;;;;;;6255390;22;20268;-81
2023/01/11 09:32:12;;;;;;;5.53;1.83;;;7.90;1.00;;;;;;6255339;22;21033;-83
2023/01/11 09:34:40;;;;;;;7.38;2.50;;;8.00;1.00;;;;;;6254510;22;20209;-83
2023/01/11 09:37:07;;;;;;;6.13;1.70;;;8.00;1.00;;;;;;6256344;22;20205;-82
2023/01/11 09:39:36;;;;;;;7.07;1.88;;;8.00;1.00;;;;;;6263242;22;20264;-84
2023/01/11 09:42:30;;;;;;;6.40;1.95;;;8.20;1.00;;;;;;6254197;22;20233;-83
2023/01/11 09:45:06;;;;;;;6.88;2.25;;;8.10;1.00;;;;;;6253050;22;20198;-80
2023/01/11 09:47:42;;;;;;;6.53;2.45;;;8.10;1.00;;;;;;6253620;22;20213;-79
2023/01/11 09:50:20;;;;;;;6.50;2.20;;;8.10;1.00;;;;;;6267186;22;20224;-84
2023/01/11 09:52:56;;;;;;;10.70;2.50;;;8.20;1.00;;;;;;6249925;22;20214;-85
2023/01/11 09:55:33;;;;;;;6.23;2.03;;;8.30;1.00;;;;;;6278336;22;20880;-85
2023/01/11 09:58:21;;;;;;;7.35;2.35;;;8.30;1.00;;;;;;6273228;22;20392;-85
2023/01/11 10:01:19;;;;;;;7.03;2.00;;;8.20;1.00;;;;;;6263827;22;20189;-85
2023/01/11 10:04:51;;;;;;;;;;;;;;;;;;;;;
2023/01/11 10:08:26;;;;;;;6.50;2.00;;;8.00;1.00;;;;;;6099480;22;51432;-85
2023/01/11 10:11:32;;;;;;;;;;;;;;;;;;;;;
2023/01/11 10:14:24;;;;;;;7.35;2.10;;;7.90;1.00;;;;;;6105632;23;49313;-85
2023/01/11 10:17:07;;;;;;;7.90;1.70;;;7.80;1.00;;;;;;6067925;23;20227;-84
2023/01/11 10:20:10;;;;;;;6.90;2.30;;;7.70;1.00;;;;;;6247301;22;20208;-86
2023/01/11 10:22:45;;;;;;;11.23;3.40;;;7.60;1.00;;;;;;6255381;22;20217;-86
2023/01/11 10:25:49;;;;;;;14.43;2.70;;;7.60;1.00;;;;;;6256736;22;20209;-86
2023/01/11 10:28:33;;;;;;;14.13;3.55;;;7.50;1.00;;;;;;6260682;22;21160;-85
2023/01/11 10:31:28;;;;;;;7.25;3.45;;;7.50;1.00;;;;;;6261392;22;20212;-84
2023/01/11 10:34:40;;;;;;;8.63;2.75;;;7.50;1.00;;;;;;6228062;22;20216;-85
2023/01/11 10:37:45;;;;;;;6.20;1.95;;;7.60;1.00;;;;;;6258156;22;20218;-85
2023/01/11 10:41:01;;;;;;;11.15;2.80;;;7.60;1.00;;;;;;6256737;22;20210;-85
2023/01/11 10:43:36;;;;;;;7.22;2.47;;;7.60;1.00;;;;;;6256535;22;20284;-85
2023/01/11 10:46:10;;;;;;;6.30;2.38;;;7.50;1.00;;;;;;6259282;22;20324;-84
2023/01/11 10:48:44;;;;;;;7.65;2.30;;;7.50;1.00;;;;;;6256319;22;20211;-84
2023/01/11 10:51:26;;;;;;;6.25;2.28;;;7.50;1.00;;;;;;6257760;22;20716;-84
2023/01/11 10:54:09;;;;;;;6.70;2.50;;;7.50;1.00;;;;;;6255464;22;20241;-84
2023/01/11 10:56:55;;;;;;;6.10;2.15;;;7.40;1.00;;;;;;6256369;22;20215;-86
2023/01/11 10:59:42;;;;;;;7.30;2.75;;;7.40;1.00;;;;;;6254293;22;20255;-86
2023/01/11 11:02:25;;;;;;;5.30;2.05;;;7.40;1.00;;;;;;6263554;22;20269;-85
2023/01/11 11:05:04;;;;;;;7.45;2.47;;;7.40;1.00;;;;;;6255865;22;20218;-84
2023/01/11 11:07:41;;;;;;;8.95;2.80;;;7.40;1.00;;;;;;6244237;22;20195;-86
2023/01/11 11:10:14;;;;;;;9.27;3.33;;;7.50;1.00;;;;;;6281795;22;20209;-87
2023/01/11 11:13:04;;;;;;;;;;;;;;;;;;;;;
2023/01/11 11:18:21;;;;;;;6.95;2.58;;;7.50;1.00;;;;;;6245408;22;20423;-86
2023/01/11 11:21:00;;;;;;;9.07;3.20;;;7.50;1.00;;;;;;6258022;22;20229;-87
2023/01/11 11:23:41;;;;;;;6.40;2.70;;;7.50;1.00;;;;;;6259122;22;20225;-86
2023/01/11 11:26:30;;;;;;;8.43;2.70;;;7.50;1.00;;;;;;6261274;22;20978;-86
2023/01/11 11:29:09;;;;;;;6.95;2.47;;;7.60;1.00;;;;;;6255959;22;20280;-86
2023/01/11 11:31:42;;;;;;;6.45;2.42;;;7.50;1.00;;;;;;6255525;22;20210;-86
2023/01/11 11:34:17;;;;;;;6.53;2.85;;;7.40;1.00;;;;;;6261023;22;20207;-85
2023/01/11 11:36:47;;;;;;;5.65;2.60;;;7.50;1.00;;;;;;6261124;22;20219;-87
2023/01/11 11:39:29;;;;;;;7.57;2.25;;;7.50;1.00;;;;;;6261499;22;20213;-86
2023/01/11 11:44:32;;;;;;;7.80;3.03;;;7.50;1.00;;;;;;6259412;22;20209;-86
2023/01/11 11:47:03;;;;;;;6.55;3.08;;;7.50;1.00;;;;;;6240652;22;20293;-87
2023/01/11 11:49:33;;;;;;;10.88;3.03;;;7.50;1.00;;;;;;6248408;22;20284;-84
2023/01/11 11:52:08;;;;;;;6.38;2.80;;;7.40;1.00;;;;;;6252064;22;20216;-86
2023/01/11 11:54:42;;;;;;;5.90;2.63;;;7.40;1.00;;;;;;6245871;22;20299;-85
2023/01/11 11:57:20;;;;;;;7.65;3.17;;;7.40;1.00;;;;;;6250374;22;20673;-85
2023/01/11 12:00:20;;;;;;;8.30;2.80;;;7.40;1.00;;;;;;6255384;22;20303;-86
2023/01/11 12:03:01;;;;;;;6.22;2.60;;;7.50;1.00;;;;;;6138096;23;20837;-86
2023/01/11 12:05:32;;;;;;;6.30;2.80;;;7.50;1.00;;;;;;6170576;22;20588;-85
2023/01/11 12:11:31;;;;;;;5.80;2.65;;;7.60;1.00;;;;;;6230623;22;20218;-85
2023/01/11 12:14:30;;;;;;;6.50;2.90;;;7.60;1.00;;;;;;6259964;22;20212;-85
2023/01/11 12:24:32;;;;;;;;;;;;;;;;;;;;;
2023/01/11 13:29:51;;;;;;;12.00;6.77;;;8.10;1.00;;;;;;6068251;23;20515;-91
2023/01/11 13:32:40;;;;;;;7.45;3.35;;;8.10;1.00;;;;;;6112868;23;20949;-91
2023/01/11 13:42:30;;;;;;;6.30;3.00;;;8.20;1.00;;;;;;6051632;23;20434;-89
2023/01/11 13:58:31;;;;;;;6.15;3.03;;;8.20;1.00;;;;;;6036468;23;20400;-90
2023/01/11 15:27:24;;;;;;;6.97;3.60;;;8.80;1.00;;;;;;6291185;22;20426;-85
2023/01/11 15:30:14;;;;;;;;;;;;;;;;;;;;;
2023/01/11 15:44:40;;;;;;;7.53;3.77;;;8.80;1.00;;;;;;6274039;22;20377;-88
2023/01/11 15:47:32;;;;;;;8.60;3.90;;;8.80;1.00;;;;;;6279050;22;20400;-90
2023/01/11 15:50:41;;;;;;;7.27;3.80;;;8.90;1.00;;;;;;6268630;22;20438;-89
2023/01/11 15:54:14;;;;;;;;;;;;;;;;;;;;;
2023/01/11 16:01:01;;;;;;;8.87;4.70;;;8.90;1.00;;;;;;6320167;22;20431;-90
2023/01/11 16:04:01;;;;;;;8.20;4.53;;;8.90;1.00;;;;;;6226985;23;20413;-86
2023/01/11 16:06:41;;;;;;;7.63;3.83;;;8.90;1.00;;;;;;6323823;22;20431;-88
2023/01/11 16:09:40;;;;;;;7.97;4.40;;;8.90;1.00;;;;;;6323144;22;20390;-85
2023/01/11 16:12:41;;;;;;;6.80;4.07;;;8.90;1.00;;;;;;6325250;22;20903;-86
2023/01/11 16:16:13;;;;;;;;;;;;;;;;;;;;;
2023/01/11 16:19:24;;;;;;;;;;;;;;;;;;;;;
2023/01/11 16:21:58;;;;;;;7.10;4.00;;;9.00;1.00;;;;;;6279213;22;50657;-85
2023/01/11 16:24:32;;;;;;;7.83;3.80;;;9.00;1.00;;;;;;6323940;22;20447;-84
2023/01/11 16:27:06;;;;;;;10.93;4.68;;;9.00;1.00;;;;;;6328081;22;20455;-85
2023/01/11 16:29:36;;;;;;;7.00;3.90;;;9.00;1.00;;;;;;6324342;22;20225;-85
2023/01/11 16:32:09;;;;;;;7.10;3.90;;;9.00;1.00;;;;;;6287355;22;20473;-85
2023/01/11 16:34:50;;;;;;;8.63;4.60;;;9.10;1.00;;;;;;6250304;22;20437;-85
2023/01/11 16:37:43;;;;;;;7.57;4.20;;;9.10;1.00;;;;;;6270154;22;20211;-86
2023/01/11 16:40:44;;;;;;;;;;;;;;;;;;;;;
2023/01/11 16:43:33;;;;;;;8.83;4.53;;;9.20;1.00;;;;;;6275751;22;50718;-86
2023/01/11 16:46:22;;;;;;;10.13;8.37;;;9.20;1.00;;;;;;6290190;22;20405;-86
2023/01/11 16:49:14;;;;;;;9.50;6.20;;;9.20;1.00;;;;;;6254116;22;20400;-86
2023/01/11 16:51:55;;;;;;;;;;;;;;;;;;;;;
2023/01/11 16:54:30;;;;;;;7.40;4.37;;;9.10;1.00;;;;;;6293739;22;39695;-85
2023/01/11 16:57:04;;;;;;;9.17;4.80;;;9.10;1.00;;;;;;6293192;22;20400;-86
2023/01/11 16:59:41;;;;;;;7.80;5.10;;;9.10;1.00;;;;;;6295428;22;20376;-85
2023/01/11 17:02:43;;;;;;;7.67;4.90;;;9.10;1.00;;;;;;6295590;22;20430;-85
2023/01/11 17:05:52;;;;;;;9.57;6.20;;;9.20;1.00;;;;;;6294816;22;20908;-86
2023/01/11 17:08:33;;;;;;;8.40;4.90;;;9.20;1.00;;;;;;6300757;22;20403;-90
2023/01/11 17:11:11;;;;;;;7.53;4.83;;;9.20;1.00;;;;;;6299304;22;20424;-91
2023/01/11 17:14:47;;;;;;;7.80;4.90;;;9.30;1.00;;;;;;6299197;22;20397;-89
2023/01/11 17:17:26;;;;;;;9.97;5.00;;;9.30;1.00;;;;;;6206652;22;20366;-86
2023/01/11 17:20:25;;;;;;;10.30;5.70;;;9.20;1.00;;;;;;6289578;22;20899;-85
2023/01/11 17:22:58;;;;;;;8.70;5.13;;;9.30;1.00;;;;;;6288375;22;20380;-85
2023/01/11 17:30:51;;;;;;;13.47;8.57;;;9.20;1.00;;;;;;6291713;22;20423;-87
2023/01/11 17:33:45;;;;;;;;;;;;;;;;;;;;;
2023/01/11 17:36:14;;;;;;;11.10;5.50;;;9.30;1.00;;;;;;6296252;22;50227;-86
2023/01/11 17:38:42;;;;;;;9.00;6.00;;;9.40;1.00;;;;;;6254607;22;20450;-82
2023/01/11 17:45:11;;;;;;;8.80;5.03;;;9.30;1.00;;;;;;6298310;22;20437;-85
2023/01/11 17:46:51;;;;;;;10.00;6.20;;;9.40;1.00;;;;;;6280227;22;20298;-89
2023/01/11 17:49:24;;;;;;;9.10;6.23;;;9.30;1.00;;;;;;6300443;22;20425;-89
2023/01/11 17:51:54;;;;;;;9.27;6.73;;;9.30;1.00;;;;;;6296559;22;20435;-85
2023/01/11 17:54:25;;;;;;;8.90;6.45;;;9.30;1.00;;;;;;6299035;22;20393;-85
2023/01/11 17:56:58;;;;;;;10.40;7.15;;;9.30;1.00;;;;;;6296113;22;20211;-86
2023/01/11 17:59:27;;;;;;;11.00;6.47;;;9.30;1.00;;;;;;6298670;22;20206;-86
2023/01/11 18:01:58;;;;;;;10.47;7.13;;;9.30;1.00;;;;;;6298914;22;20406;-86
2023/01/11 18:04:27;;;;;;;9.60;6.13;;;9.20;1.00;;;;;;6298479;22;20454;-85
2023/01/11 18:06:56;;;;;;;11.10;6.90;;;9.20;1.00;;;;;;6295196;22;20402;-85
2023/01/11 18:09:27;;;;;;;9.50;6.37;;;9.20;1.00;;;;;;6260727;22;20386;-84
2023/01/11 18:12:12;;;;;;;10.67;7.50;;;9.10;1.00;;;;;;6278996;22;20390;-84
2023/01/11 18:14:52;;;;;;;13.13;7.67;;;9.10;1.00;;;;;;6235563;22;20377;-85
2023/01/11 18:17:35;;;;;;;10.60;6.87;;;9.10;1.00;;;;;;6289840;22;20436;-86
2023/01/11 18:20:26;;;;;;;10.13;6.73;;;9.00;1.00;;;;;;6294983;22;21123;-85
2023/01/11 18:23:00;;;;;;;11.67;7.20;;;9.10;1.00;;;;;;6275271;22;20985;-86
2023/01/11 18:25:35;;;;;;;11.70;7.22;;;9.10;1.00;;;;;;6253581;22;20461;-83
2023/01/11 18:28:37;;;;;;;11.83;7.07;;;9.10;1.00;;;;;;6290286;22;20266;-85
2023/01/11 18:31:04;;;;;;;12.83;7.97;;;9.20;1.00;;;;;;6278955;22;20397;-84
2023/01/11 18:33:44;;;;;;;10.90;7.30;;;9.20;1.00;;;;;;6270286;22;20431;-91
2023/01/11 18:36:34;;;;;;;12.77;7.77;;;9.20;1.00;;;;;;6272288;22;20389;-85
2023/01/11 18:39:02;;;;;;;15.97;8.20;;;9.30;1.00;;;;;;6239538;22;20527;-82
2023/01/11 18:44:20;;;;;;;11.40;8.00;;;9.30;1.00;;;;;;6269073;22;20391;-86
2023/01/11 18:46:47;;;;;;;12.47;8.90;;;9.30;1.00;;;;;;6251884;22;20503;-85
2023/01/11 18:49:16;;;;;;;11.77;7.95;;;9.30;1.00;;;;;;6271284;22;20422;-88
2023/01/11 18:51:44;;;;;;;10.90;8.37;;;9.30;1.00;;;;;;6266470;22;20289;-87
2023/01/11 18:54:16;;;;;;;12.83;8.93;;;9.20;1.00;;;;;;6269519;22;20443;-86
2023/01/11 18:56:45;;;;;;;14.43;8.90;;;9.30;1.00;;;;;;6233849;23;20410;-86
2023/01/11 18:59:15;;;;;;;14.33;8.77;;;9.20;1.00;;;;;;6236716;22;20429;-84
2023/01/11 19:01:43;;;;;;;15.97;11.50;;;9.10;1.00;;;;;;6235133;22;20436;-86
2023/01/11 19:04:10;;;;;;;11.97;7.97;;;9.10;1.00;;;;;;6237878;22;21220;-88
2023/01/11 19:06:39;;;;;;;12.77;8.83;;;9.10;1.00;;;;;;6234536;22;20380;-87
2023/01/11 19:09:06;;;;;;;12.63;8.37;;;9.00;1.00;;;;;;6239382;22;20404;-89
2023/01/11 19:11:33;;;;;;;11.50;7.13;;;9.00;1.00;;;;;;6259419;22;20407;-87
2023/01/11 19:14:00;;;;;;;13.80;7.90;;;8.90;1.00;;;;;;6267345;22;20400;-86
2023/01/11 19:16:27;;;;;;;12.20;7.13;;;8.90;1.00;;;;;;6262029;22;20414;-86
2023/01/11 19:18:55;;;;;;;11.97;8.23;;;8.90;1.00;;;;;;6264178;22;20433;-87
2023/01/11 19:21:22;;;;;;;14.83;9.97;;;8.80;1.00;;;;;;6266459;22;20427;-85
2023/01/11 19:23:51;;;;;;;15.13;9.05;;;8.80;1.00;;;;;;6258208;22;20649;-86
2023/01/11 19:26:18;;;;;;;13.50;9.20;;;8.80;1.00;;;;;;6268732;22;20209;-86
2023/01/11 19:28:46;;;;;;;13.97;8.20;;;8.80;1.00;;;;;;6277122;22;20415;-87
2023/01/11 19:31:13;;;;;;;12.43;7.93;;;8.70;1.00;;;;;;6286280;22;20419;-83
2023/01/11 19:33:40;;;;;;;12.82;8.10;;;8.70;1.00;;;;;;6273686;22;20203;-87
2023/01/11 19:36:08;;;;;;;13.77;8.55;;;8.70;1.00;;;;;;6323052;22;20237;-87
2023/01/11 19:38:37;;;;;;;14.23;9.20;;;8.60;1.00;;;;;;6325508;22;20207;-86
2023/01/11 19:41:18;;;;;;;14.30;9.20;;;8.70;1.00;;;;;;6340540;22;20238;-87
2023/01/11 19:43:46;;;;;;;14.05;8.15;;;8.70;1.00;;;;;;6332605;22;20649;-81
2023/01/11 19:46:14;;;;;;;14.63;8.52;;;8.70;1.00;;;;;;6329308;22;20240;-80
2023/01/11 19:48:41;;;;;;;58.55;36.63;;;8.70;1.00;;;;;;6320619;22;20243;-82
2023/01/11 19:51:13;;;;;;;13.90;8.10;;;8.70;1.00;;;;;;6329723;22;20202;-82
2023/01/11 19:56:41;;;;;;;13.55;9.50;;;8.60;1.00;;;;;;6266842;22;20226;-81
2023/01/11 19:59:09;;;;;;;13.27;7.55;;;8.60;1.00;;;;;;6276856;22;20208;-82
2023/01/11 20:01:37;;;;;;;13.57;8.10;;;8.50;1.00;;;;;;6290794;22;20203;-82
2023/01/11 20:04:05;;;;;;;15.27;8.73;;;8.50;1.00;;;;;;6283147;22;20472;-81
2023/01/11 20:06:32;;;;;;;17.83;8.55;;;8.50;1.00;;;;;;6290832;22;20416;-82
2023/01/11 20:08:59;;;;;;;14.48;7.95;;;8.40;1.00;;;;;;6292240;22;20304;-81
2023/01/11 20:11:28;;;;;;;13.75;7.80;;;8.40;1.00;;;;;;6236421;22;20220;-83
2023/01/11 20:13:56;;;;;;;13.60;8.50;;;8.30;1.00;;;;;;6240121;22;20268;-81
2023/01/11 20:16:24;;;;;;;13.90;8.27;;;8.30;1.00;;;;;;6290508;22;20425;-84
2023/01/11 20:18:52;;;;;;;11.80;8.13;;;8.30;1.00;;;;;;6273598;22;20291;-82
2023/01/11 20:21:21;;;;;;;11.90;7.70;;;8.30;1.00;;;;;;6236092;22;20490;-80
2023/01/11 20:23:51;;;;;;;14.07;8.03;;;8.20;1.00;;;;;;6295934;22;21226;-80
2023/01/11 20:26:18;;;;;;;14.57;7.57;;;8.10;1.00;;;;;;6294708;22;20436;-83
2023/01/11 20:29:05;;;;;;;15.40;7.37;;;8.20;1.00;;;;;;6296138;22;20210;-80
2023/01/11 20:31:34;;;;;;;15.60;7.73;;;8.10;1.00;;;;;;6295548;22;21149;-79
2023/01/11 20:34:03;;;;;;;15.60;8.10;;;8.10;1.00;;;;;;6299915;22;20460;-79
2023/01/11 20:36:31;;;;;;;16.58;8.63;;;8.00;1.00;;;;;;6291614;22;20219;-81
2023/01/11 20:38:58;;;;;;;13.20;7.03;;;8.10;1.00;;;;;;6289436;22;20214;-81
2023/01/11 20:44:16;;;;;;;15.40;7.43;;;7.90;1.00;;;;;;6278067;22;20400;-80
2023/01/11 20:46:53;;;;;;;12.43;7.55;;;7.90;1.00;;;;;;6296688;22;20224;-84
2023/01/11 20:49:23;;;;;;;14.93;7.78;;;7.90;1.00;;;;;;6294494;22;20213;-85
2023/01/11 20:51:50;;;;;;;14.00;7.28;;;7.90;1.00;;;;;;6258593;22;20292;-86
2023/01/11 20:54:19;;;;;;;13.52;7.40;;;7.80;1.00;;;;;;6273088;22;20304;-85
2023/01/11 20:56:46;;;;;;;12.45;6.88;;;7.80;1.00;;;;;;6260062;22;20228;-85
2023/01/11 20:59:17;;;;;;;11.90;6.88;;;7.80;1.00;;;;;;6292927;22;20212;-85
2023/01/11 21:01:45;;;;;;;19.52;8.30;;;7.70;1.00;;;;;;6276522;22;20215;-86
2023/01/11 21:04:13;;;;;;;12.27;6.85;;;7.70;1.00;;;;;;6291950;22;20423;-83
2023/01/11 21:06:43;;;;;;;11.80;6.88;;;7.60;1.00;;;;;;6292751;22;20207;-85
2023/01/11 21:09:15;;;;;;;15.63;7.90;;;7.60;1.00;;;;;;6298691;22;20200;-82
2023/01/11 21:11:52;;;;;;;13.68;7.18;;;7.60;1.00;;;;;;6296984;22;20221;-82
2023/01/11 21:14:22;;;;;;;13.90;7.05;;;7.60;1.00;;;;;;6293416;22;20204;-86
2023/01/11 21:16:54;;;;;;;14.15;6.70;;;7.60;1.00;;;;;;6285785;22;20304;-85
2023/01/11 21:19:21;;;;;;;11.70;6.15;;;7.50;1.00;;;;;;6294959;22;20224;-83
2023/01/11 21:21:48;;;;;;;11.90;6.88;;;7.50;1.00;;;;;;6289533;22;20197;-85